createdAt,value
2019-03-27T00:00:19.183Z,-1.70
2019-03-27T00:02:46.830Z,-1.60
2019-03-27T00:05:13.872Z,-1.70
2019-03-27T00:07:40.247Z,-1.70
2019-03-27T00:10:09.232Z,-1.70
2019-03-27T00:12:36.425Z,-1.70
2019-03-27T00:15:12.898Z,-1.70
2019-03-27T00:17:34.904Z,-1.70
2019-03-27T00:20:01.811Z,-1.70
2019-03-27T00:22:28.297Z,-1.70
2019-03-27T00:24:54.648Z,-1.60
2019-03-27T00:27:21.047Z,-1.70
2019-03-27T00:29:47.455Z,-1.70
2019-03-27T00:32:13.894Z,-1.70
2019-03-27T00:34:40.357Z,-1.80
2019-03-27T00:37:06.786Z,-1.80
2019-03-27T00:39:33.169Z,-1.90
2019-03-27T00:41:59.610Z,-1.90
2019-03-27T00:44:26.094Z,-1.80
2019-03-27T00:46:52.478Z,-1.90
2019-03-27T00:49:18.921Z,-1.90
2019-03-27T00:51:45.318Z,-1.90
2019-03-27T00:54:11.729Z,-1.40
2019-03-27T00:56:38.133Z,-1.80
2019-03-27T00:59:04.663Z,-1.80
2019-03-27T01:01:31.057Z,-1.90
2019-03-27T01:03:57.459Z,-1.90
2019-03-27T01:06:23.947Z,-2.00
2019-03-27T01:08:50.305Z,-2.00
2019-03-27T01:11:16.718Z,-2.00
2019-03-27T01:13:43.142Z,-2.10
2019-03-27T01:16:09.568Z,-2.10
2019-03-27T01:18:35.968Z,-2.20
2019-03-27T01:21:02.647Z,-2.20
2019-03-27T01:23:28.998Z,-2.20
2019-03-27T01:25:55.364Z,-2.30
2019-03-27T01:28:21.774Z,-2.20
2019-03-27T01:30:48.093Z,-2.30
2019-03-27T01:33:14.512Z,-2.30
2019-03-27T01:35:40.880Z,-2.30
2019-03-27T01:38:07.247Z,-2.40
2019-03-27T01:40:33.669Z,-2.30
2019-03-27T01:43:00.063Z,-2.40
2019-03-27T01:45:26.403Z,-2.40
2019-03-27T01:47:52.833Z,-2.50
2019-03-27T01:50:19.184Z,-2.40
2019-03-27T01:52:45.552Z,-2.40
2019-03-27T01:55:11.957Z,-2.40
2019-03-27T01:57:38.354Z,-2.50
2019-03-27T02:00:06.959Z,-2.50
2019-03-27T02:02:33.461Z,-2.50
2019-03-27T02:04:59.840Z,-2.50
2019-03-27T02:07:26.170Z,-2.60
2019-03-27T02:09:52.533Z,-2.60
2019-03-27T02:12:18.856Z,-2.60
2019-03-27T02:14:45.248Z,-2.60
2019-03-27T02:17:11.559Z,-2.70
2019-03-27T02:19:37.997Z,-2.80
2019-03-27T02:22:04.343Z,-2.80
2019-03-27T02:24:30.777Z,-2.90
2019-03-27T02:26:57.331Z,-2.90
2019-03-27T02:29:23.778Z,-2.90
2019-03-27T02:31:50.218Z,-2.90
2019-03-27T02:34:16.572Z,-2.90
2019-03-27T02:36:42.950Z,-2.90
2019-03-27T02:39:09.287Z,-3.00
2019-03-27T02:41:35.691Z,-3.00
2019-03-27T02:44:02.205Z,-3.00
2019-03-27T02:46:28.570Z,-3.10
2019-03-27T02:48:54.977Z,-3.10
2019-03-27T02:51:21.399Z,-3.20
2019-03-27T02:53:47.812Z,-3.20
2019-03-27T02:56:14.187Z,-3.20
2019-03-27T02:58:40.472Z,-3.30
2019-03-27T03:01:06.832Z,-3.30
2019-03-27T03:03:33.191Z,-3.30
2019-03-27T03:05:59.573Z,-3.30
2019-03-27T03:08:25.973Z,-3.30
2019-03-27T03:10:52.394Z,-3.30
2019-03-27T03:13:18.763Z,-3.40
2019-03-27T03:15:45.170Z,-3.30
2019-03-27T03:18:11.582Z,-3.40
2019-03-27T03:20:37.970Z,-3.40
2019-03-27T03:23:04.397Z,-3.40
2019-03-27T03:25:30.804Z,-3.40
2019-03-27T03:27:57.174Z,-3.50
2019-03-27T03:30:23.592Z,-3.50
2019-03-27T03:32:50.029Z,-3.50
2019-03-27T03:35:16.461Z,-3.60
2019-03-27T03:37:42.817Z,-3.50
2019-03-27T03:40:10.478Z,-3.50
2019-03-27T03:42:37.275Z,-3.40
2019-03-27T03:45:05.844Z,-3.40
2019-03-27T03:47:32.264Z,-3.40
2019-03-27T03:50:01.393Z,-3.30
2019-03-27T03:52:28.757Z,-3.40
2019-03-27T03:54:55.181Z,-3.30
2019-03-27T03:57:25.060Z,-3.30
2019-03-27T03:59:52.200Z,-3.30
2019-03-27T04:02:19.974Z,-3.40
2019-03-27T04:04:47.724Z,-3.20
2019-03-27T04:07:14.125Z,-3.30
2019-03-27T04:09:40.511Z,-3.20
2019-03-27T04:12:08.060Z,-3.30
2019-03-27T04:14:34.473Z,-3.30
2019-03-27T04:17:16.337Z,-3.30
2019-03-27T04:19:29.049Z,-3.30
2019-03-27T04:21:55.506Z,-3.40
2019-03-27T04:24:21.841Z,-3.40
2019-03-27T04:26:48.226Z,-3.40
2019-03-27T04:29:14.592Z,-3.40
2019-03-27T04:31:40.994Z,-3.40
2019-03-27T04:34:07.444Z,-3.30
2019-03-27T04:36:33.900Z,-3.30
2019-03-27T04:39:00.282Z,-3.30
2019-03-27T04:41:26.932Z,-3.30
2019-03-27T04:43:53.412Z,-3.30
2019-03-27T04:46:19.826Z,-3.30
2019-03-27T04:48:46.297Z,-3.30
2019-03-27T04:51:12.689Z,-3.20
2019-03-27T04:53:39.077Z,-3.20
2019-03-27T04:56:05.485Z,-3.20
2019-03-27T04:58:31.802Z,-3.10
2019-03-27T05:00:58.201Z,-3.10
2019-03-27T05:03:24.547Z,-3.10
2019-03-27T05:05:50.951Z,-3.20
2019-03-27T05:08:17.307Z,-3.20
2019-03-27T05:10:43.744Z,-3.30
2019-03-27T05:13:10.104Z,-3.10
2019-03-27T05:15:36.516Z,-3.00
2019-03-27T05:18:03.037Z,-3.00
2019-03-27T05:20:29.428Z,-2.90
2019-03-27T05:22:55.781Z,-2.80
2019-03-27T05:25:22.224Z,-2.80
2019-03-27T05:27:48.661Z,-2.70
2019-03-27T05:30:18.881Z,-2.70
2019-03-27T05:32:45.339Z,-2.60
2019-03-27T05:35:11.750Z,-2.60
2019-03-27T05:37:38.143Z,-2.50
2019-03-27T05:40:06.173Z,-2.50
2019-03-27T05:42:32.569Z,-2.50
2019-03-27T05:44:58.979Z,-2.40
2019-03-27T05:47:25.290Z,-2.30
2019-03-27T05:49:51.670Z,-2.30
2019-03-27T05:52:18.092Z,-2.20
2019-03-27T05:54:44.513Z,-2.20
2019-03-27T05:57:11.008Z,-2.00
2019-03-27T05:59:37.373Z,-1.90
2019-03-27T06:02:03.756Z,-1.80
2019-03-27T06:04:30.208Z,-1.70
2019-03-27T06:06:56.665Z,-1.30
2019-03-27T06:09:23.068Z,-0.70
2019-03-27T06:11:49.497Z,0.00
2019-03-27T06:14:15.866Z,0.50
2019-03-27T06:16:43.267Z,0.80
2019-03-27T06:19:09.597Z,1.10
2019-03-27T06:21:35.981Z,1.30
2019-03-27T06:24:02.329Z,1.60
2019-03-27T06:26:28.792Z,2.30
2019-03-27T06:28:55.189Z,3.00
2019-03-27T06:31:21.605Z,3.90
2019-03-27T06:33:48.085Z,4.70
2019-03-27T06:36:14.384Z,5.50
2019-03-27T06:38:40.831Z,5.90
2019-03-27T06:41:07.206Z,6.60
2019-03-27T06:43:33.649Z,6.50
2019-03-27T06:46:00.034Z,7.20
2019-03-27T06:48:27.437Z,7.50
2019-03-27T06:50:53.836Z,8.10
2019-03-27T06:53:20.239Z,8.30
2019-03-27T06:55:46.664Z,8.30
2019-03-27T06:58:13.210Z,8.90
2019-03-27T07:00:39.570Z,9.20
2019-03-27T07:03:06.291Z,9.70
2019-03-27T07:05:32.655Z,10.20
2019-03-27T07:08:00.047Z,10.10
2019-03-27T07:10:26.480Z,10.20
2019-03-27T07:12:52.878Z,10.70
2019-03-27T07:15:19.311Z,10.90
2019-03-27T07:17:45.744Z,11.20
2019-03-27T07:20:12.248Z,11.20
2019-03-27T07:22:38.650Z,11.20
2019-03-27T07:25:06.805Z,11.80
2019-03-27T07:27:33.216Z,11.90
2019-03-27T07:29:59.591Z,12.20
2019-03-27T07:32:26.012Z,12.30
2019-03-27T07:34:52.405Z,12.20
2019-03-27T07:37:18.849Z,11.90
2019-03-27T07:39:45.269Z,12.30
2019-03-27T07:42:11.699Z,12.40
2019-03-27T07:44:39.243Z,12.70
2019-03-27T07:47:05.725Z,12.80
2019-03-27T07:49:32.112Z,13.50
2019-03-27T07:51:58.514Z,13.50
2019-03-27T07:54:24.930Z,13.60
2019-03-27T07:56:51.327Z,13.70
2019-03-27T07:59:17.730Z,13.30
2019-03-27T08:01:44.347Z,13.30
2019-03-27T08:04:14.110Z,13.60
2019-03-27T08:06:38.961Z,13.90
2019-03-27T08:09:06.501Z,14.70
2019-03-27T08:11:33.142Z,15.10
2019-03-27T08:13:59.977Z,14.90
2019-03-27T08:16:26.522Z,14.60
2019-03-27T08:19:06.613Z,15.20
2019-03-27T08:21:21.133Z,15.30
2019-03-27T08:23:47.463Z,15.30
2019-03-27T08:26:13.877Z,15.10
2019-03-27T08:28:40.315Z,15.50
2019-03-27T08:31:06.705Z,15.80
2019-03-27T08:33:33.074Z,15.60
2019-03-27T08:36:00.561Z,15.40
2019-03-27T08:38:27.091Z,15.30
2019-03-27T08:40:53.451Z,15.20
2019-03-27T08:43:21.909Z,15.80
2019-03-27T08:45:48.112Z,16.70
2019-03-27T08:48:14.497Z,16.30
2019-03-27T08:50:41.969Z,16.30
2019-03-27T08:53:08.371Z,16.50
2019-03-27T08:55:34.761Z,16.00
2019-03-27T08:58:01.125Z,16.40
2019-03-27T09:00:40.555Z,16.30
2019-03-27T09:03:06.953Z,16.20
2019-03-27T09:05:33.385Z,16.20
2019-03-27T09:07:59.764Z,16.20
2019-03-27T09:10:26.169Z,16.00
2019-03-27T09:12:52.649Z,16.50
2019-03-27T09:15:19.055Z,16.60
2019-03-27T09:17:45.731Z,17.80
2019-03-27T09:20:12.537Z,17.60
2019-03-27T09:22:39.193Z,17.80
2019-03-27T09:25:06.193Z,17.90
2019-03-27T09:27:32.584Z,17.70
2019-03-27T09:29:59.011Z,18.10
2019-03-27T09:32:25.417Z,18.50
2019-03-27T09:34:51.811Z,18.50
2019-03-27T09:37:18.476Z,19.20
2019-03-27T09:39:44.935Z,19.70
2019-03-27T09:42:11.571Z,19.00
2019-03-27T09:44:37.974Z,19.20
2019-03-27T09:47:05.430Z,18.90
2019-03-27T09:49:31.821Z,19.30
2019-03-27T09:51:58.250Z,18.80
2019-03-27T09:54:24.663Z,19.20
2019-03-27T09:56:51.101Z,19.30
2019-03-27T09:59:17.554Z,19.30
2019-03-27T10:01:43.945Z,19.50
2019-03-27T10:04:10.343Z,19.50
2019-03-27T10:06:36.746Z,19.80
2019-03-27T10:09:04.990Z,20.10
2019-03-27T10:11:31.433Z,20.50
2019-03-27T10:13:57.864Z,20.20
2019-03-27T10:16:24.358Z,20.50
2019-03-27T10:18:50.727Z,19.60
2019-03-27T10:21:17.174Z,19.80
2019-03-27T10:23:43.623Z,20.40
2019-03-27T10:26:10.097Z,20.30
2019-03-27T10:28:36.576Z,20.20
2019-03-27T10:31:03.132Z,20.30
2019-03-27T10:33:29.640Z,20.20
2019-03-27T10:35:56.073Z,19.60
2019-03-27T10:38:22.514Z,20.10
2019-03-27T10:40:48.957Z,19.50
2019-03-27T10:43:15.421Z,19.80
2019-03-27T10:45:42.060Z,20.20
2019-03-27T10:48:08.461Z,20.00
2019-03-27T10:50:34.904Z,19.80
2019-03-27T10:53:01.309Z,19.70
2019-03-27T10:55:27.744Z,19.80
2019-03-27T10:57:54.178Z,20.20
2019-03-27T11:00:20.638Z,20.80
2019-03-27T11:02:47.455Z,20.80
2019-03-27T11:05:13.839Z,20.80
2019-03-27T11:07:40.410Z,20.90
2019-03-27T11:10:08.304Z,21.30
2019-03-27T11:12:34.693Z,21.30
2019-03-27T11:15:01.160Z,21.80
2019-03-27T11:17:27.583Z,21.50
2019-03-27T11:19:54.021Z,21.20
2019-03-27T11:22:20.522Z,21.10
2019-03-27T11:24:46.846Z,21.70
2019-03-27T11:27:14.278Z,21.20
2019-03-27T11:29:40.656Z,20.70
2019-03-27T11:32:07.047Z,20.10
2019-03-27T11:34:33.418Z,19.90
2019-03-27T11:36:59.819Z,20.90
2019-03-27T11:39:26.215Z,21.20
2019-03-27T11:41:52.639Z,21.20
2019-03-27T11:44:19.013Z,21.60
2019-03-27T11:46:45.398Z,21.40
2019-03-27T11:49:11.825Z,21.60
2019-03-27T11:51:38.266Z,22.10
2019-03-27T11:54:04.683Z,21.50
2019-03-27T11:56:31.107Z,21.10
2019-03-27T11:58:57.537Z,20.80
2019-03-27T12:01:24.095Z,20.70
2019-03-27T12:03:50.510Z,20.00
2019-03-27T12:06:16.858Z,18.80
2019-03-27T12:08:43.269Z,18.70
2019-03-27T12:11:09.689Z,19.30
2019-03-27T12:13:36.077Z,19.70
2019-03-27T12:16:02.672Z,19.40
2019-03-27T12:18:31.883Z,18.80
2019-03-27T12:20:59.506Z,18.00
2019-03-27T12:23:25.542Z,17.50
2019-03-27T12:25:55.018Z,16.50
2019-03-27T12:28:20.105Z,16.10
2019-03-27T12:30:46.489Z,15.90
2019-03-27T12:33:12.929Z,16.20
2019-03-27T12:35:39.349Z,16.20
2019-03-27T12:38:05.856Z,16.10
2019-03-27T12:40:32.293Z,15.50
2019-03-27T12:42:58.632Z,15.40
2019-03-27T12:45:25.088Z,15.10
2019-03-27T12:47:51.553Z,15.10
2019-03-27T12:50:17.959Z,14.80
2019-03-27T12:52:44.407Z,14.40
2019-03-27T12:55:10.945Z,13.90
2019-03-27T12:57:37.409Z,13.60
2019-03-27T13:00:07.813Z,13.50
2019-03-27T13:02:34.204Z,13.60
2019-03-27T13:05:00.622Z,13.50
2019-03-27T13:07:26.932Z,13.40
2019-03-27T13:09:53.357Z,13.50
2019-03-27T13:12:19.703Z,13.50
2019-03-27T13:14:46.101Z,13.50
2019-03-27T13:17:12.450Z,13.30
2019-03-27T13:19:38.883Z,13.20
2019-03-27T13:22:06.333Z,13.10
2019-03-27T13:24:32.744Z,12.90
2019-03-27T13:26:59.143Z,12.80
2019-03-27T13:29:25.570Z,12.60
2019-03-27T13:31:52.019Z,12.40
2019-03-27T13:34:18.494Z,12.30
2019-03-27T13:36:45.263Z,12.30
2019-03-27T13:39:12.744Z,12.50
2019-03-27T13:41:39.254Z,12.70
2019-03-27T13:44:05.767Z,12.70
2019-03-27T13:46:32.145Z,12.70
2019-03-27T13:48:58.604Z,12.80
2019-03-27T13:51:24.986Z,12.90
2019-03-27T13:53:51.575Z,13.00
2019-03-27T13:56:21.009Z,13.00
2019-03-27T13:58:47.410Z,13.00
2019-03-27T14:01:13.899Z,13.00
2019-03-27T14:03:40.387Z,12.90
2019-03-27T14:06:06.811Z,12.90
2019-03-27T14:08:33.256Z,12.90
2019-03-27T14:10:59.680Z,12.70
2019-03-27T14:13:26.014Z,12.70
2019-03-27T14:15:52.435Z,12.50
2019-03-27T14:18:18.926Z,12.40
2019-03-27T14:20:45.447Z,12.30
2019-03-27T14:23:12.888Z,12.30
2019-03-27T14:25:39.369Z,12.30
2019-03-27T14:28:05.839Z,12.20
2019-03-27T14:30:53.848Z,12.30
2019-03-27T14:33:20.514Z,12.10
2019-03-27T14:35:46.989Z,12.00
2019-03-27T14:38:13.566Z,11.90
2019-03-27T14:40:40.373Z,11.70
2019-03-27T14:43:07.199Z,11.60
2019-03-27T14:45:33.788Z,11.60
2019-03-27T14:48:00.280Z,11.60
2019-03-27T14:50:26.733Z,11.50
2019-03-27T14:52:53.155Z,11.40
2019-03-27T14:55:19.550Z,11.20
2019-03-27T14:57:46.763Z,11.20
2019-03-27T15:00:13.934Z,11.20
2019-03-27T15:02:40.481Z,11.20
2019-03-27T15:05:07.625Z,11.10
2019-03-27T15:07:34.230Z,11.10
2019-03-27T15:10:00.854Z,11.10
2019-03-27T15:12:27.277Z,11.10
2019-03-27T15:14:53.831Z,11.10
2019-03-27T15:17:20.402Z,11.10
2019-03-27T15:19:47.193Z,11.10
2019-03-27T15:22:22.188Z,11.10
2019-03-27T15:24:42.331Z,11.00
2019-03-27T15:27:08.916Z,11.10
2019-03-27T15:29:35.411Z,11.10
2019-03-27T15:32:03.129Z,11.10
2019-03-27T15:34:29.594Z,11.10
2019-03-27T15:36:56.034Z,11.10
2019-03-27T15:39:22.530Z,11.00
2019-03-27T15:41:49.031Z,11.00
2019-03-27T15:44:15.635Z,10.90
2019-03-27T15:46:42.149Z,10.80
2019-03-27T15:49:09.688Z,10.70
2019-03-27T15:51:36.313Z,10.80
2019-03-27T15:54:02.775Z,10.80
2019-03-27T15:56:29.270Z,10.80
2019-03-27T15:58:56.420Z,10.80
2019-03-27T16:01:23.008Z,10.60
2019-03-27T16:03:49.442Z,10.70
2019-03-27T16:06:15.907Z,10.60
2019-03-27T16:08:42.389Z,10.50
2019-03-27T16:11:09.009Z,10.50
2019-03-27T16:13:35.484Z,10.50
2019-03-27T16:16:02.031Z,10.50
2019-03-27T16:18:28.480Z,10.30
2019-03-27T16:20:54.850Z,10.20
2019-03-27T16:23:21.244Z,10.20
2019-03-27T16:25:47.847Z,10.20
2019-03-27T16:28:14.306Z,10.10
2019-03-27T16:30:40.705Z,10.10
2019-03-27T16:33:07.300Z,10.10
2019-03-27T16:35:33.861Z,10.10
2019-03-27T16:38:00.405Z,10.10
2019-03-27T16:40:41.695Z,10.10
2019-03-27T16:43:08.252Z,10.10
2019-03-27T16:45:34.778Z,10.10
2019-03-27T16:48:01.250Z,10.00
2019-03-27T16:50:27.647Z,9.90
2019-03-27T16:53:03.384Z,9.90
2019-03-27T16:55:22.219Z,9.80
2019-03-27T16:57:51.271Z,9.80
2019-03-27T17:00:16.943Z,9.70
2019-03-27T17:02:43.366Z,9.70
2019-03-27T17:05:10.008Z,9.70
2019-03-27T17:07:37.592Z,9.60
2019-03-27T17:10:05.193Z,9.60
2019-03-27T17:12:31.723Z,9.60
2019-03-27T17:14:58.313Z,9.60
2019-03-27T17:17:25.345Z,9.50
2019-03-27T17:19:52.057Z,9.50
2019-03-27T17:22:19.933Z,9.50
2019-03-27T17:24:47.785Z,9.50
2019-03-27T17:27:14.293Z,9.50
2019-03-27T17:29:40.769Z,9.50
2019-03-27T17:32:07.465Z,9.40
2019-03-27T17:34:33.949Z,9.40
2019-03-27T17:37:00.304Z,9.40
2019-03-27T17:39:26.782Z,9.30
2019-03-27T17:41:53.210Z,9.30
2019-03-27T17:44:19.647Z,9.30
2019-03-27T17:46:46.110Z,9.20
2019-03-27T17:49:12.659Z,9.10
2019-03-27T17:51:39.113Z,9.20
2019-03-27T17:54:19.588Z,9.10
2019-03-27T17:56:33.887Z,9.00
2019-03-27T17:59:00.415Z,9.10
2019-03-27T18:01:26.888Z,9.10
2019-03-27T18:03:53.328Z,9.00
2019-03-27T18:06:19.756Z,9.10
2019-03-27T18:08:46.280Z,9.10
2019-03-27T18:11:12.743Z,9.00
2019-03-27T18:13:39.214Z,9.10
2019-03-27T18:16:05.669Z,9.00
2019-03-27T18:18:32.073Z,9.10
2019-03-27T18:20:58.520Z,9.00
2019-03-27T18:23:24.949Z,9.00
2019-03-27T18:25:51.350Z,9.00
2019-03-27T18:28:17.851Z,9.00
2019-03-27T18:30:44.291Z,9.00
2019-03-27T18:33:10.728Z,9.00
2019-03-27T18:35:38.184Z,9.00
2019-03-27T18:38:04.669Z,9.00
2019-03-27T18:40:32.198Z,9.00
2019-03-27T18:42:58.650Z,9.00
2019-03-27T18:45:25.195Z,9.10
2019-03-27T18:47:51.617Z,9.00
2019-03-27T18:50:18.135Z,8.90
2019-03-27T18:52:44.677Z,8.90
2019-03-27T18:55:11.208Z,8.90
2019-03-27T18:57:37.638Z,8.90
2019-03-27T19:00:07.055Z,8.90
2019-03-27T19:02:33.619Z,8.90
2019-03-27T19:05:00.238Z,8.90
2019-03-27T19:07:26.949Z,8.90
2019-03-27T19:09:53.357Z,8.90
2019-03-27T19:12:19.824Z,8.80
2019-03-27T19:14:46.276Z,8.80
2019-03-27T19:17:12.738Z,8.70
2019-03-27T19:19:39.195Z,8.70
2019-03-27T19:22:05.577Z,8.80
2019-03-27T19:24:32.142Z,8.70
2019-03-27T19:26:58.716Z,8.60
2019-03-27T19:29:25.139Z,8.60
2019-03-27T19:31:51.550Z,8.60
2019-03-27T19:34:17.979Z,8.60
2019-03-27T19:36:44.380Z,8.60
2019-03-27T19:39:10.866Z,8.50
2019-03-27T19:41:37.413Z,8.50
2019-03-27T19:44:03.990Z,8.40
2019-03-27T19:46:31.393Z,8.40
2019-03-27T19:48:57.840Z,8.40
2019-03-27T19:51:24.323Z,8.40
2019-03-27T19:53:50.797Z,8.40
2019-03-27T19:56:17.291Z,8.40
2019-03-27T19:58:43.722Z,8.40
2019-03-27T20:01:10.162Z,8.40
2019-03-27T20:03:36.621Z,8.40
2019-03-27T20:06:03.103Z,8.40
2019-03-27T20:08:29.585Z,8.30
2019-03-27T20:10:56.002Z,8.40
2019-03-27T20:13:22.490Z,8.30
2019-03-27T20:15:49.043Z,8.30
2019-03-27T20:18:15.550Z,8.40
2019-03-27T20:20:42.144Z,8.40
2019-03-27T20:23:14.976Z,8.30
2019-03-27T20:25:38.904Z,8.30
2019-03-27T20:28:05.490Z,8.30
2019-03-27T20:30:31.929Z,8.30
2019-03-27T20:32:58.573Z,8.30
2019-03-27T20:35:25.057Z,8.30
2019-03-27T20:37:51.658Z,8.30
2019-03-27T20:40:18.325Z,8.30
2019-03-27T20:42:45.028Z,8.20
2019-03-27T20:45:12.806Z,8.10
2019-03-27T20:47:40.512Z,8.10
2019-03-27T20:50:07.534Z,8.10
2019-03-27T20:52:34.162Z,8.10
2019-03-27T20:55:00.622Z,8.00
2019-03-27T20:57:27.489Z,8.00
2019-03-27T20:59:54.155Z,8.00
2019-03-27T21:02:20.631Z,7.90
2019-03-27T21:04:47.133Z,7.90
2019-03-27T21:07:13.633Z,7.90
2019-03-27T21:09:40.072Z,7.90
2019-03-27T21:12:07.602Z,7.90
2019-03-27T21:14:34.142Z,7.80
2019-03-27T21:17:00.660Z,7.90
2019-03-27T21:19:27.336Z,7.90
2019-03-27T21:21:53.744Z,7.80
2019-03-27T21:24:20.187Z,7.80
2019-03-27T21:26:47.380Z,7.80
2019-03-27T21:29:13.980Z,7.80
2019-03-27T21:31:40.498Z,7.90
2019-03-27T21:34:07.042Z,7.80
2019-03-27T21:36:33.472Z,7.90
2019-03-27T21:39:01.183Z,7.90
2019-03-27T21:41:29.440Z,7.90
2019-03-27T21:43:56.038Z,7.90
2019-03-27T21:46:22.370Z,7.90
2019-03-27T21:48:48.797Z,7.90
2019-03-27T21:51:15.222Z,8.00
2019-03-27T21:53:41.690Z,7.90
2019-03-27T21:56:08.883Z,7.90
2019-03-27T21:58:35.446Z,7.80
2019-03-27T22:01:02.010Z,7.80
2019-03-27T22:03:28.415Z,7.80
2019-03-27T22:05:54.938Z,7.90
2019-03-27T22:08:21.372Z,7.90
2019-03-27T22:10:47.935Z,7.80
2019-03-27T22:13:14.406Z,7.80
2019-03-27T22:15:40.861Z,7.70
2019-03-27T22:18:07.292Z,7.70
2019-03-27T22:20:33.697Z,7.70
2019-03-27T22:23:00.118Z,7.80
2019-03-27T22:25:35.856Z,7.80
2019-03-27T22:27:54.903Z,7.80
2019-03-27T22:30:21.341Z,7.80
2019-03-27T22:32:47.798Z,7.80
2019-03-27T22:35:14.275Z,7.80
2019-03-27T22:37:40.614Z,7.80
2019-03-27T22:40:07.812Z,7.80
2019-03-27T22:42:34.172Z,7.80
2019-03-27T22:45:00.598Z,7.70
2019-03-27T22:47:27.072Z,7.80
2019-03-27T22:49:54.459Z,7.80
2019-03-27T22:52:20.904Z,7.70
2019-03-27T22:54:47.281Z,7.70
2019-03-27T22:57:13.722Z,7.70
2019-03-27T22:59:40.235Z,7.60
2019-03-27T23:02:06.791Z,7.70
2019-03-27T23:04:33.187Z,7.70
2019-03-27T23:06:59.597Z,7.80
2019-03-27T23:09:25.984Z,7.70
2019-03-27T23:11:52.416Z,7.70
2019-03-27T23:14:18.856Z,7.70
2019-03-27T23:16:45.254Z,7.70
2019-03-27T23:19:11.662Z,7.70
2019-03-27T23:21:38.088Z,7.60
2019-03-27T23:24:04.590Z,7.60
2019-03-27T23:26:31.023Z,7.50
2019-03-27T23:28:58.626Z,7.50
2019-03-27T23:31:25.103Z,7.50
2019-03-27T23:33:51.486Z,7.50
2019-03-27T23:36:17.880Z,7.50
2019-03-27T23:38:44.304Z,7.50
2019-03-27T23:41:10.672Z,7.60
2019-03-27T23:43:37.082Z,7.60
2019-03-27T23:46:03.487Z,7.60
2019-03-27T23:48:29.982Z,7.60
2019-03-27T23:50:56.411Z,7.70
2019-03-27T23:53:22.920Z,7.70
2019-03-27T23:55:49.374Z,7.60
2019-03-27T23:58:15.765Z,7.60
